sensor_id;sensor_type;location;lat;lon;timestamp;temperature;humidity
4896;DHT22;2463;49.948;8.472;2023-08-06T00:00:55;16.70;99.90
4896;DHT22;2463;49.948;8.472;2023-08-06T00:03:22;16.70;99.90
4896;DHT22;2463;49.948;8.472;2023-08-06T00:05:49;16.70;99.90
4896;DHT22;2463;49.948;8.472;2023-08-06T00:08:16;16.60;99.90
4896;DHT22;2463;49.948;8.472;2023-08-06T00:10:43;16.60;99.90
4896;DHT22;2463;49.948;8.472;2023-08-06T00:13:10;16.60;99.90
4896;DHT22;2463;49.948;8.472;2023-08-06T00:15:36;16.60;99.90
4896;DHT22;2463;49.948;8.472;2023-08-06T00:18:03;16.60;99.90
4896;DHT22;2463;49.948;8.472;2023-08-06T00:20:30;16.70;99.90
4896;DHT22;2463;49.948;8.472;2023-08-06T00:22:57;16.70;99.90
4896;DHT22;2463;49.948;8.472;2023-08-06T00:25:24;16.70;99.90
4896;DHT22;2463;49.948;8.472;2023-08-06T00:27:50;16.80;99.90
4896;DHT22;2463;49.948;8.472;2023-08-06T00:30:17;16.80;99.90
4896;DHT22;2463;49.948;8.472;2023-08-06T00:32:44;16.90;99.90
4896;DHT22;2463;49.948;8.472;2023-08-06T00:35:11;16.80;99.90
4896;DHT22;2463;49.948;8.472;2023-08-06T00:37:40;16.90;99.90
4896;DHT22;2463;49.948;8.472;2023-08-06T00:40:07;16.90;99.90
4896;DHT22;2463;49.948;8.472;2023-08-06T00:42:36;17.00;99.90
4896;DHT22;2463;49.948;8.472;2023-08-06T00:45:03;17.00;99.90
4896;DHT22;2463;49.948;8.472;2023-08-06T00:47:29;17.00;99.90
4896;DHT22;2463;49.948;8.472;2023-08-06T00:49:57;17.10;99.90
4896;DHT22;2463;49.948;8.472;2023-08-06T00:52:24;17.10;99.90
4896;DHT22;2463;49.948;8.472;2023-08-06T00:54:50;17.10;99.90
4896;DHT22;2463;49.948;8.472;2023-08-06T00:57:17;17.20;99.90
4896;DHT22;2463;49.948;8.472;2023-08-06T00:59:45;17.20;99.90
4896;DHT22;2463;49.948;8.472;2023-08-06T01:02:12;17.20;99.90
4896;DHT22;2463;49.948;8.472;2023-08-06T01:04:39;17.30;99.90
4896;DHT22;2463;49.948;8.472;2023-08-06T01:15:47;17.40;99.90
4896;DHT22;2463;49.948;8.472;2023-08-06T01:18:16;17.40;99.90
4896;DHT22;2463;49.948;8.472;2023-08-06T01:20:43;17.40;99.90
4896;DHT22;2463;49.948;8.472;2023-08-06T01:23:09;17.40;99.90
4896;DHT22;2463;49.948;8.472;2023-08-06T01:26:26;17.40;99.90
4896;DHT22;2463;49.948;8.472;2023-08-06T01:29:12;17.40;99.90
4896;DHT22;2463;49.948;8.472;2023-08-06T01:31:43;17.40;99.90
4896;DHT22;2463;49.948;8.472;2023-08-06T01:34:26;17.40;99.90
4896;DHT22;2463;49.948;8.472;2023-08-06T01:36:54;17.40;99.90
4896;DHT22;2463;49.948;8.472;2023-08-06T01:39:21;17.30;99.90
4896;DHT22;2463;49.948;8.472;2023-08-06T01:41:48;17.20;99.90
4896;DHT22;2463;49.948;8.472;2023-08-06T01:44:15;17.30;99.90
4896;DHT22;2463;49.948;8.472;2023-08-06T01:46:42;17.20;99.90
4896;DHT22;2463;49.948;8.472;2023-08-06T01:49:09;17.20;99.90
4896;DHT22;2463;49.948;8.472;2023-08-06T01:51:36;17.20;99.90
4896;DHT22;2463;49.948;8.472;2023-08-06T01:54:02;17.10;99.90
4896;DHT22;2463;49.948;8.472;2023-08-06T01:56:30;17.20;99.90
4896;DHT22;2463;49.948;8.472;2023-08-06T01:58:56;17.20;99.90
4896;DHT22;2463;49.948;8.472;2023-08-06T02:01:23;17.20;99.90
4896;DHT22;2463;49.948;8.472;2023-08-06T02:03:50;17.10;99.90
4896;DHT22;2463;49.948;8.472;2023-08-06T02:06:16;17.10;99.90
4896;DHT22;2463;49.948;8.472;2023-08-06T02:08:43;17.10;99.90
4896;DHT22;2463;49.948;8.472;2023-08-06T02:11:10;17.10;99.90
4896;DHT22;2463;49.948;8.472;2023-08-06T02:13:36;17.10;99.90
4896;DHT22;2463;49.948;8.472;2023-08-06T02:16:03;17.10;99.90
4896;DHT22;2463;49.948;8.472;2023-08-06T02:18:30;17.10;99.90
4896;DHT22;2463;49.948;8.472;2023-08-06T02:20:58;17.10;99.90
4896;DHT22;2463;49.948;8.472;2023-08-06T02:23:25;17.00;99.90
4896;DHT22;2463;49.948;8.472;2023-08-06T02:26:02;17.10;99.90
4896;DHT22;2463;49.948;8.472;2023-08-06T02:28:30;17.10;99.90
4896;DHT22;2463;49.948;8.472;2023-08-06T02:30:57;17.10;99.90
4896;DHT22;2463;49.948;8.472;2023-08-06T02:33:24;17.10;99.90
4896;DHT22;2463;49.948;8.472;2023-08-06T02:35:51;17.00;99.90
4896;DHT22;2463;49.948;8.472;2023-08-06T02:38:24;17.00;99.90
4896;DHT22;2463;49.948;8.472;2023-08-06T02:40:51;17.00;99.90
4896;DHT22;2463;49.948;8.472;2023-08-06T02:43:18;17.00;99.90
4896;DHT22;2463;49.948;8.472;2023-08-06T02:45:44;17.00;99.90
4896;DHT22;2463;49.948;8.472;2023-08-06T02:48:11;17.00;99.90
4896;DHT22;2463;49.948;8.472;2023-08-06T02:50:41;17.00;99.90
4896;DHT22;2463;49.948;8.472;2023-08-06T02:53:08;17.00;99.90
4896;DHT22;2463;49.948;8.472;2023-08-06T02:55:35;16.90;99.90
4896;DHT22;2463;49.948;8.472;2023-08-06T02:58:02;16.90;99.90
4896;DHT22;2463;49.948;8.472;2023-08-06T03:00:29;16.90;99.90
4896;DHT22;2463;49.948;8.472;2023-08-06T03:02:56;16.90;99.90
4896;DHT22;2463;49.948;8.472;2023-08-06T03:05:23;17.00;99.90
4896;DHT22;2463;49.948;8.472;2023-08-06T03:07:49;17.00;99.90
4896;DHT22;2463;49.948;8.472;2023-08-06T03:10:16;17.00;99.90
4896;DHT22;2463;49.948;8.472;2023-08-06T03:12:43;17.00;99.90
4896;DHT22;2463;49.948;8.472;2023-08-06T03:15:10;17.00;99.90
4896;DHT22;2463;49.948;8.472;2023-08-06T03:17:36;16.90;99.90
4896;DHT22;2463;49.948;8.472;2023-08-06T03:20:04;16.90;99.90
4896;DHT22;2463;49.948;8.472;2023-08-06T03:22:31;16.90;99.90
4896;DHT22;2463;49.948;8.472;2023-08-06T03:24:57;16.90;99.90
4896;DHT22;2463;49.948;8.472;2023-08-06T03:27:24;15.20;99.90
4896;DHT22;2463;49.948;8.472;2023-08-06T03:29:51;16.80;99.90
4896;DHT22;2463;49.948;8.472;2023-08-06T03:32:17;16.80;99.90
4896;DHT22;2463;49.948;8.472;2023-08-06T03:34:44;16.70;99.90
4896;DHT22;2463;49.948;8.472;2023-08-06T03:37:11;16.70;99.90
4896;DHT22;2463;49.948;8.472;2023-08-06T03:39:38;16.70;99.90
4896;DHT22;2463;49.948;8.472;2023-08-06T03:42:05;16.60;99.90
4896;DHT22;2463;49.948;8.472;2023-08-06T03:44:32;16.50;99.90
4896;DHT22;2463;49.948;8.472;2023-08-06T03:46:58;16.50;99.90
4896;DHT22;2463;49.948;8.472;2023-08-06T03:49:25;16.50;99.90
4896;DHT22;2463;49.948;8.472;2023-08-06T03:51:52;16.50;99.90
4896;DHT22;2463;49.948;8.472;2023-08-06T03:54:19;16.60;99.90
4896;DHT22;2463;49.948;8.472;2023-08-06T03:56:46;16.60;99.90
4896;DHT22;2463;49.948;8.472;2023-08-06T03:59:12;16.60;99.90
4896;DHT22;2463;49.948;8.472;2023-08-06T04:01:39;16.60;99.90
4896;DHT22;2463;49.948;8.472;2023-08-06T04:04:06;16.50;99.90
4896;DHT22;2463;49.948;8.472;2023-08-06T04:06:32;16.50;99.90
4896;DHT22;2463;49.948;8.472;2023-08-06T04:08:59;16.50;99.90
4896;DHT22;2463;49.948;8.472;2023-08-06T04:11:26;16.50;99.90
4896;DHT22;2463;49.948;8.472;2023-08-06T04:13:52;16.40;99.90
4896;DHT22;2463;49.948;8.472;2023-08-06T04:16:21;16.40;99.90
4896;DHT22;2463;49.948;8.472;2023-08-06T04:18:48;16.40;99.90
4896;DHT22;2463;49.948;8.472;2023-08-06T04:21:15;16.40;99.90
4896;DHT22;2463;49.948;8.472;2023-08-06T04:23:41;16.30;99.90
4896;DHT22;2463;49.948;8.472;2023-08-06T04:26:08;16.40;99.90
4896;DHT22;2463;49.948;8.472;2023-08-06T04:28:35;16.40;99.90
4896;DHT22;2463;49.948;8.472;2023-08-06T04:31:02;16.30;99.90
4896;DHT22;2463;49.948;8.472;2023-08-06T04:33:28;16.20;99.90
4896;DHT22;2463;49.948;8.472;2023-08-06T04:35:55;16.20;99.90
4896;DHT22;2463;49.948;8.472;2023-08-06T04:40:55;16.10;99.90
4896;DHT22;2463;49.948;8.472;2023-08-06T04:43:21;16.10;99.90
4896;DHT22;2463;49.948;8.472;2023-08-06T04:45:53;16.00;99.90
4896;DHT22;2463;49.948;8.472;2023-08-06T04:48:20;15.90;99.90
4896;DHT22;2463;49.948;8.472;2023-08-06T04:50:48;15.90;99.90
4896;DHT22;2463;49.948;8.472;2023-08-06T04:53:15;15.90;99.90
4896;DHT22;2463;49.948;8.472;2023-08-06T04:55:42;15.90;99.90
4896;DHT22;2463;49.948;8.472;2023-08-06T04:58:10;15.90;99.90
4896;DHT22;2463;49.948;8.472;2023-08-06T05:00:37;15.90;99.90
4896;DHT22;2463;49.948;8.472;2023-08-06T05:03:04;15.80;99.90
4896;DHT22;2463;49.948;8.472;2023-08-06T05:05:31;15.80;99.90
4896;DHT22;2463;49.948;8.472;2023-08-06T05:07:58;15.80;99.90
4896;DHT22;2463;49.948;8.472;2023-08-06T05:10:25;15.90;99.90
4896;DHT22;2463;49.948;8.472;2023-08-06T05:12:53;15.90;99.90
4896;DHT22;2463;49.948;8.472;2023-08-06T05:15:20;15.90;99.90
4896;DHT22;2463;49.948;8.472;2023-08-06T05:17:46;15.90;99.90
4896;DHT22;2463;49.948;8.472;2023-08-06T05:20:13;15.80;99.90
4896;DHT22;2463;49.948;8.472;2023-08-06T05:22:40;15.80;99.90
4896;DHT22;2463;49.948;8.472;2023-08-06T05:25:07;15.80;99.90
4896;DHT22;2463;49.948;8.472;2023-08-06T05:27:34;15.80;99.90
4896;DHT22;2463;49.948;8.472;2023-08-06T05:30:01;15.80;99.90
4896;DHT22;2463;49.948;8.472;2023-08-06T05:32:27;15.90;99.90
4896;DHT22;2463;49.948;8.472;2023-08-06T05:34:54;15.90;99.90
4896;DHT22;2463;49.948;8.472;2023-08-06T05:37:21;15.90;99.90
4896;DHT22;2463;49.948;8.472;2023-08-06T05:39:48;15.90;99.90
4896;DHT22;2463;49.948;8.472;2023-08-06T05:42:14;16.00;99.90
4896;DHT22;2463;49.948;8.472;2023-08-06T05:44:41;15.90;99.90
4896;DHT22;2463;49.948;8.472;2023-08-06T05:47:08;15.90;99.90
4896;DHT22;2463;49.948;8.472;2023-08-06T05:49:34;15.90;99.90
4896;DHT22;2463;49.948;8.472;2023-08-06T05:52:01;16.10;99.90
4896;DHT22;2463;49.948;8.472;2023-08-06T05:54:29;16.00;99.90
4896;DHT22;2463;49.948;8.472;2023-08-06T05:56:56;15.90;99.90
4896;DHT22;2463;49.948;8.472;2023-08-06T05:59:23;16.10;99.90
4896;DHT22;2463;49.948;8.472;2023-08-06T06:01:49;16.10;99.90
4896;DHT22;2463;49.948;8.472;2023-08-06T06:04:16;16.10;99.90
4896;DHT22;2463;49.948;8.472;2023-08-06T06:06:43;16.10;99.90
4896;DHT22;2463;49.948;8.472;2023-08-06T06:09:10;16.10;99.90
4896;DHT22;2463;49.948;8.472;2023-08-06T06:11:36;16.10;99.90
4896;DHT22;2463;49.948;8.472;2023-08-06T06:14:03;16.10;99.90
4896;DHT22;2463;49.948;8.472;2023-08-06T06:16:30;16.10;99.90
4896;DHT22;2463;49.948;8.472;2023-08-06T06:18:56;16.00;99.90
4896;DHT22;2463;49.948;8.472;2023-08-06T06:21:24;16.10;99.90
4896;DHT22;2463;49.948;8.472;2023-08-06T06:23:50;16.20;99.90
4896;DHT22;2463;49.948;8.472;2023-08-06T06:26:20;16.20;99.90
4896;DHT22;2463;49.948;8.472;2023-08-06T06:28:47;16.30;99.90
4896;DHT22;2463;49.948;8.472;2023-08-06T06:31:14;16.30;99.90
4896;DHT22;2463;49.948;8.472;2023-08-06T06:33:40;16.30;99.90
4896;DHT22;2463;49.948;8.472;2023-08-06T06:36:07;16.30;99.90
4896;DHT22;2463;49.948;8.472;2023-08-06T06:38:34;16.30;99.90
4896;DHT22;2463;49.948;8.472;2023-08-06T06:41:01;16.30;99.90
4896;DHT22;2463;49.948;8.472;2023-08-06T06:43:29;16.20;99.90
4896;DHT22;2463;49.948;8.472;2023-08-06T06:45:57;16.20;99.90
4896;DHT22;2463;49.948;8.472;2023-08-06T06:48:28;16.20;99.90
4896;DHT22;2463;49.948;8.472;2023-08-06T06:50:56;16.20;99.90
4896;DHT22;2463;49.948;8.472;2023-08-06T06:53:23;16.20;99.90
4896;DHT22;2463;49.948;8.472;2023-08-06T06:56:02;16.20;99.90
4896;DHT22;2463;49.948;8.472;2023-08-06T06:58:31;16.20;99.90
4896;DHT22;2463;49.948;8.472;2023-08-06T07:00:57;16.20;99.90
4896;DHT22;2463;49.948;8.472;2023-08-06T07:03:24;16.10;99.90
4896;DHT22;2463;49.948;8.472;2023-08-06T07:05:51;16.20;99.90
4896;DHT22;2463;49.948;8.472;2023-08-06T07:08:18;16.10;99.90
4896;DHT22;2463;49.948;8.472;2023-08-06T07:10:45;16.10;99.90
4896;DHT22;2463;49.948;8.472;2023-08-06T07:13:11;16.10;99.90
4896;DHT22;2463;49.948;8.472;2023-08-06T07:15:38;16.10;99.90
4896;DHT22;2463;49.948;8.472;2023-08-06T07:18:05;16.10;99.90
4896;DHT22;2463;49.948;8.472;2023-08-06T07:20:32;16.10;99.90
4896;DHT22;2463;49.948;8.472;2023-08-06T07:23:00;16.10;99.90
4896;DHT22;2463;49.948;8.472;2023-08-06T07:25:27;16.10;99.90
4896;DHT22;2463;49.948;8.472;2023-08-06T07:27:54;16.10;99.90
4896;DHT22;2463;49.948;8.472;2023-08-06T07:30:23;16.10;99.90
4896;DHT22;2463;49.948;8.472;2023-08-06T07:32:50;16.10;99.90
4896;DHT22;2463;49.948;8.472;2023-08-06T07:35:17;16.20;99.90
4896;DHT22;2463;49.948;8.472;2023-08-06T07:37:43;16.20;99.90
4896;DHT22;2463;49.948;8.472;2023-08-06T07:40:10;16.20;99.90
4896;DHT22;2463;49.948;8.472;2023-08-06T07:42:37;16.20;99.90
4896;DHT22;2463;49.948;8.472;2023-08-06T07:45:04;16.20;99.90
4896;DHT22;2463;49.948;8.472;2023-08-06T07:47:31;16.20;99.90
4896;DHT22;2463;49.948;8.472;2023-08-06T07:49:58;16.20;99.90
4896;DHT22;2463;49.948;8.472;2023-08-06T07:52:25;16.20;99.90
4896;DHT22;2463;49.948;8.472;2023-08-06T07:54:51;16.20;99.90
4896;DHT22;2463;49.948;8.472;2023-08-06T07:57:18;16.30;99.90
4896;DHT22;2463;49.948;8.472;2023-08-06T07:59:45;16.40;99.90
4896;DHT22;2463;49.948;8.472;2023-08-06T08:02:12;16.50;99.90
4896;DHT22;2463;49.948;8.472;2023-08-06T08:04:38;16.50;99.90
4896;DHT22;2463;49.948;8.472;2023-08-06T08:07:05;16.70;99.90
4896;DHT22;2463;49.948;8.472;2023-08-06T08:09:32;16.80;99.90
4896;DHT22;2463;49.948;8.472;2023-08-06T08:11:59;16.90;99.90
4896;DHT22;2463;49.948;8.472;2023-08-06T08:14:27;17.10;99.90
4896;DHT22;2463;49.948;8.472;2023-08-06T08:16:55;17.30;99.90
4896;DHT22;2463;49.948;8.472;2023-08-06T08:19:22;17.30;99.90
4896;DHT22;2463;49.948;8.472;2023-08-06T08:21:49;17.40;99.90
4896;DHT22;2463;49.948;8.472;2023-08-06T08:24:16;17.50;99.90
4896;DHT22;2463;49.948;8.472;2023-08-06T08:26:46;17.70;99.90
4896;DHT22;2463;49.948;8.472;2023-08-06T08:29:12;17.80;99.90
4896;DHT22;2463;49.948;8.472;2023-08-06T08:31:39;18.20;99.90
4896;DHT22;2463;49.948;8.472;2023-08-06T08:34:06;18.70;99.90
4896;DHT22;2463;49.948;8.472;2023-08-06T08:36:33;19.00;99.90
4896;DHT22;2463;49.948;8.472;2023-08-06T08:38:59;19.40;99.90
4896;DHT22;2463;49.948;8.472;2023-08-06T08:41:33;19.90;99.90
4896;DHT22;2463;49.948;8.472;2023-08-06T08:44:01;20.30;99.90
4896;DHT22;2463;49.948;8.472;2023-08-06T08:46:32;20.50;99.90
4896;DHT22;2463;49.948;8.472;2023-08-06T08:49:02;20.50;99.90
4896;DHT22;2463;49.948;8.472;2023-08-06T08:51:29;20.40;99.90
4896;DHT22;2463;49.948;8.472;2023-08-06T08:53:56;20.30;99.90
4896;DHT22;2463;49.948;8.472;2023-08-06T08:56:24;20.20;99.90
4896;DHT22;2463;49.948;8.472;2023-08-06T08:58:51;20.10;99.90
4896;DHT22;2463;49.948;8.472;2023-08-06T09:01:24;20.10;99.90
4896;DHT22;2463;49.948;8.472;2023-08-06T09:03:51;20.20;99.90
4896;DHT22;2463;49.948;8.472;2023-08-06T09:06:19;20.40;99.90
4896;DHT22;2463;49.948;8.472;2023-08-06T09:09:22;20.80;99.90
4896;DHT22;2463;49.948;8.472;2023-08-06T09:11:51;20.80;99.90
4896;DHT22;2463;49.948;8.472;2023-08-06T09:14:19;20.70;99.90
4896;DHT22;2463;49.948;8.472;2023-08-06T09:16:47;20.40;99.90
4896;DHT22;2463;49.948;8.472;2023-08-06T09:19:14;20.10;99.90
4896;DHT22;2463;49.948;8.472;2023-08-06T09:21:45;19.90;99.90
4896;DHT22;2463;49.948;8.472;2023-08-06T09:24:15;19.80;99.90
4896;DHT22;2463;49.948;8.472;2023-08-06T09:26:44;19.80;99.90
4896;DHT22;2463;49.948;8.472;2023-08-06T09:29:11;19.70;99.90
4896;DHT22;2463;49.948;8.472;2023-08-06T09:31:49;19.70;99.90
4896;DHT22;2463;49.948;8.472;2023-08-06T09:34:18;19.60;99.90
4896;DHT22;2463;49.948;8.472;2023-08-06T09:36:50;19.50;99.90
4896;DHT22;2463;49.948;8.472;2023-08-06T09:39:19;19.40;99.90
4896;DHT22;2463;49.948;8.472;2023-08-06T09:41:47;19.30;99.90
4896;DHT22;2463;49.948;8.472;2023-08-06T09:44:20;19.20;99.90
4896;DHT22;2463;49.948;8.472;2023-08-06T09:46:49;19.20;99.90
4896;DHT22;2463;49.948;8.472;2023-08-06T09:49:19;19.20;99.90
4896;DHT22;2463;49.948;8.472;2023-08-06T09:51:51;19.30;99.90
4896;DHT22;2463;49.948;8.472;2023-08-06T09:54:19;19.50;99.90
4896;DHT22;2463;49.948;8.472;2023-08-06T09:56:54;19.60;99.90
4896;DHT22;2463;49.948;8.472;2023-08-06T09:59:24;19.80;99.90
4896;DHT22;2463;49.948;8.472;2023-08-06T10:01:51;19.90;99.90
4896;DHT22;2463;49.948;8.472;2023-08-06T10:04:20;20.10;99.90
4896;DHT22;2463;49.948;8.472;2023-08-06T10:06:52;20.30;99.90
4896;DHT22;2463;49.948;8.472;2023-08-06T10:09:20;20.30;99.90
4896;DHT22;2463;49.948;8.472;2023-08-06T10:11:51;20.20;99.90
4896;DHT22;2463;49.948;8.472;2023-08-06T10:14:24;20.10;99.90
4896;DHT22;2463;49.948;8.472;2023-08-06T10:16:53;19.90;99.90
4896;DHT22;2463;49.948;8.472;2023-08-06T10:19:21;19.80;99.90
4896;DHT22;2463;49.948;8.472;2023-08-06T10:22:14;20.00;99.90
4896;DHT22;2463;49.948;8.472;2023-08-06T10:24:51;20.30;99.90
4896;DHT22;2463;49.948;8.472;2023-08-06T10:27:41;20.80;99.90
4896;DHT22;2463;49.948;8.472;2023-08-06T10:30:32;20.90;99.90
4896;DHT22;2463;49.948;8.472;2023-08-06T10:33:02;21.00;99.90
4896;DHT22;2463;49.948;8.472;2023-08-06T10:38:12;21.30;99.90
4896;DHT22;2463;49.948;8.472;2023-08-06T10:40:41;21.60;99.90
4896;DHT22;2463;49.948;8.472;2023-08-06T10:43:28;21.90;99.90
4896;DHT22;2463;49.948;8.472;2023-08-06T10:45:56;22.00;99.90
4896;DHT22;2463;49.948;8.472;2023-08-06T10:48:45;22.10;99.90
4896;DHT22;2463;49.948;8.472;2023-08-06T10:51:13;22.00;99.90
4896;DHT22;2463;49.948;8.472;2023-08-06T10:53:47;22.40;99.90
4896;DHT22;2463;49.948;8.472;2023-08-06T10:56:22;22.60;99.90
4896;DHT22;2463;49.948;8.472;2023-08-06T10:58:50;22.80;99.90
4896;DHT22;2463;49.948;8.472;2023-08-06T11:01:18;22.70;99.90
4896;DHT22;2463;49.948;8.472;2023-08-06T11:03:46;22.60;99.90
4896;DHT22;2463;49.948;8.472;2023-08-06T11:06:22;22.50;99.90
4896;DHT22;2463;49.948;8.472;2023-08-06T11:08:51;22.10;99.90
4896;DHT22;2463;49.948;8.472;2023-08-06T11:11:20;21.60;99.90
4896;DHT22;2463;49.948;8.472;2023-08-06T11:13:48;21.20;99.90
4896;DHT22;2463;49.948;8.472;2023-08-06T11:16:20;20.80;99.90
4896;DHT22;2463;49.948;8.472;2023-08-06T11:18:47;20.60;99.90
4896;DHT22;2463;49.948;8.472;2023-08-06T11:21:14;20.40;99.90
4896;DHT22;2463;49.948;8.472;2023-08-06T11:23:41;20.00;99.90
4896;DHT22;2463;49.948;8.472;2023-08-06T11:26:08;19.80;99.90
4896;DHT22;2463;49.948;8.472;2023-08-06T11:28:35;19.80;99.90
4896;DHT22;2463;49.948;8.472;2023-08-06T11:31:01;19.70;99.90
4896;DHT22;2463;49.948;8.472;2023-08-06T11:33:30;19.60;99.90
4896;DHT22;2463;49.948;8.472;2023-08-06T11:35:59;19.60;99.90
4896;DHT22;2463;49.948;8.472;2023-08-06T11:38:27;19.60;99.90
4896;DHT22;2463;49.948;8.472;2023-08-06T11:40:55;19.60;99.90
4896;DHT22;2463;49.948;8.472;2023-08-06T11:43:22;19.70;99.90
4896;DHT22;2463;49.948;8.472;2023-08-06T11:45:50;19.60;99.90
4896;DHT22;2463;49.948;8.472;2023-08-06T11:48:17;19.40;99.90
4896;DHT22;2463;49.948;8.472;2023-08-06T11:50:45;19.10;99.90
4896;DHT22;2463;49.948;8.472;2023-08-06T11:53:15;18.90;99.90
4896;DHT22;2463;49.948;8.472;2023-08-06T11:55:42;18.70;99.90
4896;DHT22;2463;49.948;8.472;2023-08-06T11:58:10;18.60;99.90
4896;DHT22;2463;49.948;8.472;2023-08-06T12:00:38;18.40;99.90
4896;DHT22;2463;49.948;8.472;2023-08-06T12:03:05;18.20;99.90
4896;DHT22;2463;49.948;8.472;2023-08-06T12:05:33;18.10;99.90
4896;DHT22;2463;49.948;8.472;2023-08-06T12:08:01;18.10;99.90
4896;DHT22;2463;49.948;8.472;2023-08-06T12:10:30;17.90;99.90
4896;DHT22;2463;49.948;8.472;2023-08-06T12:12:57;17.80;99.90
4896;DHT22;2463;49.948;8.472;2023-08-06T12:15:24;17.80;99.90
4896;DHT22;2463;49.948;8.472;2023-08-06T12:17:51;17.70;99.90
4896;DHT22;2463;49.948;8.472;2023-08-06T12:20:18;17.70;99.90
4896;DHT22;2463;49.948;8.472;2023-08-06T12:22:45;17.70;99.90
4896;DHT22;2463;49.948;8.472;2023-08-06T12:25:12;17.70;99.90
4896;DHT22;2463;49.948;8.472;2023-08-06T12:27:41;17.90;99.90
4896;DHT22;2463;49.948;8.472;2023-08-06T12:30:10;18.00;99.90
4896;DHT22;2463;49.948;8.472;2023-08-06T12:32:37;18.00;99.90
4896;DHT22;2463;49.948;8.472;2023-08-06T12:35:05;18.10;99.90
4896;DHT22;2463;49.948;8.472;2023-08-06T12:37:34;18.20;99.90
4896;DHT22;2463;49.948;8.472;2023-08-06T12:40:01;18.20;99.90
4896;DHT22;2463;49.948;8.472;2023-08-06T12:42:45;18.20;99.90
4896;DHT22;2463;49.948;8.472;2023-08-06T12:45:12;18.20;99.90
4896;DHT22;2463;49.948;8.472;2023-08-06T12:47:39;18.10;99.90
4896;DHT22;2463;49.948;8.472;2023-08-06T12:50:06;18.10;99.90
4896;DHT22;2463;49.948;8.472;2023-08-06T12:52:34;18.00;99.90
4896;DHT22;2463;49.948;8.472;2023-08-06T12:55:01;17.90;99.90
4896;DHT22;2463;49.948;8.472;2023-08-06T12:57:28;17.90;99.90
4896;DHT22;2463;49.948;8.472;2023-08-06T13:00:13;17.80;99.90
4896;DHT22;2463;49.948;8.472;2023-08-06T13:02:39;17.90;99.90
4896;DHT22;2463;49.948;8.472;2023-08-06T13:05:06;17.80;99.90
4896;DHT22;2463;49.948;8.472;2023-08-06T13:07:33;17.70;99.90
4896;DHT22;2463;49.948;8.472;2023-08-06T13:10:00;17.60;99.90
4896;DHT22;2463;49.948;8.472;2023-08-06T13:12:27;17.70;99.90
4896;DHT22;2463;49.948;8.472;2023-08-06T13:14:53;17.50;99.90
4896;DHT22;2463;49.948;8.472;2023-08-06T13:17:23;17.50;99.90
4896;DHT22;2463;49.948;8.472;2023-08-06T13:19:50;17.50;99.90
4896;DHT22;2463;49.948;8.472;2023-08-06T13:22:17;17.40;99.90
4896;DHT22;2463;49.948;8.472;2023-08-06T13:24:44;17.40;99.90
4896;DHT22;2463;49.948;8.472;2023-08-06T13:27:11;17.40;99.90
4896;DHT22;2463;49.948;8.472;2023-08-06T13:29:37;17.40;99.90
4896;DHT22;2463;49.948;8.472;2023-08-06T13:32:04;17.40;99.90
4896;DHT22;2463;49.948;8.472;2023-08-06T13:34:32;17.40;99.90
4896;DHT22;2463;49.948;8.472;2023-08-06T13:36:59;17.30;99.90
4896;DHT22;2463;49.948;8.472;2023-08-06T13:39:26;17.30;99.90
4896;DHT22;2463;49.948;8.472;2023-08-06T13:41:53;17.40;99.90
4896;DHT22;2463;49.948;8.472;2023-08-06T13:44:19;17.30;99.90
4896;DHT22;2463;49.948;8.472;2023-08-06T13:46:46;17.10;99.90
4896;DHT22;2463;49.948;8.472;2023-08-06T13:49:13;17.10;99.90
4896;DHT22;2463;49.948;8.472;2023-08-06T13:51:39;17.10;99.90
4896;DHT22;2463;49.948;8.472;2023-08-06T13:54:06;17.00;99.90
4896;DHT22;2463;49.948;8.472;2023-08-06T13:56:34;17.00;99.90
4896;DHT22;2463;49.948;8.472;2023-08-06T13:59:01;17.00;99.90
4896;DHT22;2463;49.948;8.472;2023-08-06T14:01:28;16.90;99.90
4896;DHT22;2463;49.948;8.472;2023-08-06T14:04:13;17.00;99.90
4896;DHT22;2463;49.948;8.472;2023-08-06T14:06:40;17.00;99.90
4896;DHT22;2463;49.948;8.472;2023-08-06T14:09:07;17.00;99.90
4896;DHT22;2463;49.948;8.472;2023-08-06T14:11:34;17.00;99.90
4896;DHT22;2463;49.948;8.472;2023-08-06T14:14:01;17.00;99.90
4896;DHT22;2463;49.948;8.472;2023-08-06T14:16:30;17.00;99.90
4896;DHT22;2463;49.948;8.472;2023-08-06T14:18:56;17.00;99.90
4896;DHT22;2463;49.948;8.472;2023-08-06T14:21:23;17.10;99.90
4896;DHT22;2463;49.948;8.472;2023-08-06T14:23:50;17.10;99.90
4896;DHT22;2463;49.948;8.472;2023-08-06T14:26:16;17.20;99.90
4896;DHT22;2463;49.948;8.472;2023-08-06T14:28:44;17.30;99.90
4896;DHT22;2463;49.948;8.472;2023-08-06T14:31:11;17.40;99.90
4896;DHT22;2463;49.948;8.472;2023-08-06T14:33:38;17.60;99.90
4896;DHT22;2463;49.948;8.472;2023-08-06T14:36:05;17.60;99.90
4896;DHT22;2463;49.948;8.472;2023-08-06T14:38:32;17.70;99.90
4896;DHT22;2463;49.948;8.472;2023-08-06T14:41:06;17.70;99.90
4896;DHT22;2463;49.948;8.472;2023-08-06T14:43:33;17.70;99.90
4896;DHT22;2463;49.948;8.472;2023-08-06T14:45:59;17.70;99.90
4896;DHT22;2463;49.948;8.472;2023-08-06T14:48:26;17.80;99.90
4896;DHT22;2463;49.948;8.472;2023-08-06T14:50:54;17.80;99.90
4896;DHT22;2463;49.948;8.472;2023-08-06T14:53:21;17.50;99.90
4896;DHT22;2463;49.948;8.472;2023-08-06T14:55:47;17.60;99.90
4896;DHT22;2463;49.948;8.472;2023-08-06T14:58:14;17.60;99.90
4896;DHT22;2463;49.948;8.472;2023-08-06T15:00:41;17.50;99.90
4896;DHT22;2463;49.948;8.472;2023-08-06T15:03:08;17.50;99.90
4896;DHT22;2463;49.948;8.472;2023-08-06T15:05:35;17.60;99.90
4896;DHT22;2463;49.948;8.472;2023-08-06T15:08:02;17.60;99.90
4896;DHT22;2463;49.948;8.472;2023-08-06T15:10:28;17.60;99.90
4896;DHT22;2463;49.948;8.472;2023-08-06T15:12:55;17.60;99.90
4896;DHT22;2463;49.948;8.472;2023-08-06T15:15:22;17.60;99.90
4896;DHT22;2463;49.948;8.472;2023-08-06T15:17:49;17.60;99.90
4896;DHT22;2463;49.948;8.472;2023-08-06T15:20:16;17.50;99.90
4896;DHT22;2463;49.948;8.472;2023-08-06T15:22:43;17.50;99.90
4896;DHT22;2463;49.948;8.472;2023-08-06T15:25:10;17.40;99.90
4896;DHT22;2463;49.948;8.472;2023-08-06T15:27:36;17.40;99.90
4896;DHT22;2463;49.948;8.472;2023-08-06T15:30:04;17.40;99.90
4896;DHT22;2463;49.948;8.472;2023-08-06T15:32:31;17.30;99.90
4896;DHT22;2463;49.948;8.472;2023-08-06T15:34:58;17.30;99.90
4896;DHT22;2463;49.948;8.472;2023-08-06T15:37:25;17.20;99.90
4896;DHT22;2463;49.948;8.472;2023-08-06T15:39:52;17.20;99.90
4896;DHT22;2463;49.948;8.472;2023-08-06T15:42:19;17.10;99.90
4896;DHT22;2463;49.948;8.472;2023-08-06T15:44:45;17.10;99.90
4896;DHT22;2463;49.948;8.472;2023-08-06T15:47:13;17.10;99.90
4896;DHT22;2463;49.948;8.472;2023-08-06T15:49:40;17.10;99.90
4896;DHT22;2463;49.948;8.472;2023-08-06T15:52:07;17.10;99.90
4896;DHT22;2463;49.948;8.472;2023-08-06T15:54:33;17.00;99.90
4896;DHT22;2463;49.948;8.472;2023-08-06T15:57:00;17.00;99.90
4896;DHT22;2463;49.948;8.472;2023-08-06T15:59:31;17.00;99.90
4896;DHT22;2463;49.948;8.472;2023-08-06T16:02:00;17.00;99.90
4896;DHT22;2463;49.948;8.472;2023-08-06T16:04:30;16.90;99.90
4896;DHT22;2463;49.948;8.472;2023-08-06T16:07:00;16.90;99.90
4896;DHT22;2463;49.948;8.472;2023-08-06T16:09:27;16.80;99.90
4896;DHT22;2463;49.948;8.472;2023-08-06T16:11:54;16.80;99.90
4896;DHT22;2463;49.948;8.472;2023-08-06T16:14:21;16.80;99.90
4896;DHT22;2463;49.948;8.472;2023-08-06T16:16:48;16.70;99.90
4896;DHT22;2463;49.948;8.472;2023-08-06T16:19:14;16.70;99.90
4896;DHT22;2463;49.948;8.472;2023-08-06T16:21:41;16.60;99.90